createdAt,value
2016-08-26T00:00:02.049Z,19.57
2016-08-26T00:01:03.256Z,19.46
2016-08-26T00:02:02.800Z,19.57
2016-08-26T00:03:02.831Z,19.68
2016-08-26T00:04:02.664Z,19.46
2016-08-26T00:05:02.081Z,19.39
2016-08-26T00:06:02.050Z,19.53
2016-08-26T00:07:02.051Z,19.4
2016-08-26T00:08:02.073Z,19.48
2016-08-26T00:09:02.052Z,19.51
2016-08-26T00:10:02.057Z,19.48
2016-08-26T00:11:02.401Z,19.38
2016-08-26T00:12:02.056Z,19.5
2016-08-26T00:13:02.917Z,19.4
2016-08-26T00:14:02.072Z,19.38
2016-08-26T00:15:02.692Z,19.32
2016-08-26T00:16:02.773Z,19.31
2016-08-26T00:17:02.091Z,19.33
2016-08-26T00:18:02.099Z,19.43
2016-08-26T00:19:02.096Z,19.36
2016-08-26T00:20:02.067Z,19.43
2016-08-26T00:21:02.100Z,19.33
2016-08-26T00:22:02.086Z,19.28
2016-08-26T00:23:03.131Z,19.32
2016-08-26T00:24:02.084Z,19.38
2016-08-26T00:25:02.077Z,19.43
2016-08-26T00:26:02.256Z,19.39
2016-08-26T00:27:02.291Z,19.38
2016-08-26T00:28:02.105Z,19.31
2016-08-26T00:29:02.082Z,19.25
2016-08-26T00:30:02.082Z,19.32
2016-08-26T00:31:02.090Z,19.36
2016-08-26T00:32:02.057Z,19.31
2016-08-26T00:33:02.075Z,19.29
2016-08-26T00:34:02.071Z,19.31
2016-08-26T00:35:02.070Z,19.21
2016-08-26T00:36:02.117Z,19.17
2016-08-26T00:37:02.083Z,19.14
2016-08-26T00:38:02.103Z,19.2
2016-08-26T00:39:02.144Z,19.25
2016-08-26T00:40:02.107Z,19.25
2016-08-26T00:41:02.074Z,19.13
2016-08-26T00:42:02.087Z,19.17
2016-08-26T00:43:02.087Z,19.24
2016-08-26T00:44:02.116Z,19.2
2016-08-26T00:45:02.094Z,19.14
2016-08-26T00:46:02.080Z,19.13
2016-08-26T00:47:02.083Z,19.18
2016-08-26T00:48:02.097Z,19.15
2016-08-26T00:49:02.090Z,19.15
2016-08-26T00:50:02.128Z,19.1
2016-08-26T00:51:02.100Z,19.06
2016-08-26T00:52:02.114Z,18.99
2016-08-26T00:53:02.087Z,19.06
2016-08-26T00:54:02.100Z,19.1
2016-08-26T00:55:02.118Z,19.06
2016-08-26T00:56:02.097Z,19.15
2016-08-26T00:57:02.101Z,18.94
2016-08-26T00:58:02.105Z,19.05
2016-08-26T00:59:02.100Z,18.97
2016-08-26T01:00:02.078Z,19.06
2016-08-26T01:01:02.147Z,18.98
2016-08-26T01:02:02.119Z,19.13
2016-08-26T01:03:02.100Z,19.02
2016-08-26T01:04:02.136Z,19.11
2016-08-26T01:05:02.186Z,18.95
2016-08-26T01:06:02.236Z,18.87
2016-08-26T01:07:02.082Z,18.95
2016-08-26T01:08:02.189Z,19.06
2016-08-26T01:09:02.130Z,18.97
2016-08-26T01:10:02.120Z,18.91
2016-08-26T01:11:02.099Z,18.95
2016-08-26T01:12:02.136Z,18.98
2016-08-26T01:13:02.145Z,18.91
2016-08-26T01:14:02.120Z,18.95
2016-08-26T01:15:02.144Z,18.83
2016-08-26T01:16:02.103Z,18.79
2016-08-26T01:17:02.504Z,18.87
2016-08-26T01:18:02.119Z,18.86
2016-08-26T01:19:02.180Z,18.84
2016-08-26T01:20:02.172Z,18.92
2016-08-26T01:21:02.137Z,18.8
2016-08-26T01:22:02.114Z,18.72
2016-08-26T01:23:02.119Z,18.76
2016-08-26T01:24:02.100Z,18.73
2016-08-26T01:25:02.194Z,18.72
2016-08-26T01:26:02.177Z,18.7
2016-08-26T01:27:02.132Z,18.76
2016-08-26T01:28:02.147Z,18.86
2016-08-26T01:29:02.148Z,18.8
2016-08-26T01:30:02.146Z,18.73
2016-08-26T01:31:02.287Z,18.7
2016-08-26T01:32:02.164Z,18.64
2016-08-26T01:33:02.129Z,18.74
2016-08-26T01:34:02.115Z,18.76
2016-08-26T01:35:02.130Z,18.7
2016-08-26T01:36:02.169Z,18.74
2016-08-26T01:37:02.150Z,18.74
2016-08-26T01:38:02.147Z,18.7
2016-08-26T01:39:02.148Z,18.72
2016-08-26T01:40:02.138Z,18.49
2016-08-26T01:41:02.138Z,18.62
2016-08-26T01:42:02.146Z,18.62
2016-08-26T01:43:02.154Z,18.62
2016-08-26T01:44:02.152Z,18.54
2016-08-26T01:45:02.164Z,18.65
2016-08-26T01:46:02.144Z,18.57
2016-08-26T01:47:03.144Z,18.46
2016-08-26T01:48:02.176Z,18.46
2016-08-26T01:49:02.212Z,18.65
2016-08-26T01:50:02.153Z,18.49
2016-08-26T01:51:02.149Z,18.52
2016-08-26T01:52:02.170Z,18.54
2016-08-26T01:53:02.202Z,18.52
2016-08-26T01:54:02.163Z,18.55
2016-08-26T01:55:02.144Z,18.61
2016-08-26T01:56:02.151Z,18.37
2016-08-26T01:57:02.176Z,18.43
2016-08-26T01:58:02.163Z,18.54
2016-08-26T01:59:02.143Z,18.47
2016-08-26T02:00:02.148Z,18.46
2016-08-26T02:01:02.137Z,18.46
2016-08-26T02:02:02.171Z,18.44
2016-08-26T02:03:02.152Z,18.5
2016-08-26T02:04:02.153Z,18.42
2016-08-26T02:05:02.146Z,18.39
2016-08-26T02:06:02.152Z,18.4
2016-08-26T02:07:02.166Z,18.4
2016-08-26T02:08:02.181Z,18.42
2016-08-26T02:09:02.186Z,18.4
2016-08-26T02:10:02.178Z,18.4
2016-08-26T02:11:02.171Z,18.39
2016-08-26T02:12:02.180Z,18.33
2016-08-26T02:13:02.178Z,18.4
2016-08-26T02:14:02.194Z,18.34
2016-08-26T02:15:02.165Z,18.36
2016-08-26T02:16:02.240Z,18.39
2016-08-26T02:17:02.198Z,18.42
2016-08-26T02:18:02.181Z,18.42
2016-08-26T02:19:02.168Z,18.37
2016-08-26T02:20:02.330Z,18.33
2016-08-26T02:21:02.179Z,18.27
2016-08-26T02:22:02.150Z,18.37
2016-08-26T02:23:02.182Z,18.34
2016-08-26T02:24:02.199Z,18.33
2016-08-26T02:25:02.166Z,18.36
2016-08-26T02:26:02.245Z,18.28
2016-08-26T02:27:02.226Z,18.29
2016-08-26T02:28:02.300Z,18.34
2016-08-26T02:29:02.221Z,18.33
2016-08-26T02:30:02.256Z,18.36
2016-08-26T02:31:02.255Z,18.33
2016-08-26T02:32:02.200Z,18.37
2016-08-26T02:33:02.181Z,18.33
2016-08-26T02:34:02.199Z,18.37
2016-08-26T02:35:02.334Z,18.21
2016-08-26T02:36:02.181Z,18.27
2016-08-26T02:37:02.200Z,18.31
2016-08-26T02:38:02.213Z,18.21
2016-08-26T02:39:02.321Z,18.25
2016-08-26T02:40:02.223Z,18.15
2016-08-26T02:41:02.269Z,18.18
2016-08-26T02:42:02.234Z,18.21
2016-08-26T02:43:02.255Z,18.28
2016-08-26T02:44:02.276Z,18.21
2016-08-26T02:45:02.214Z,18.28
2016-08-26T02:46:02.213Z,18.29
2016-08-26T02:47:02.233Z,18.15
2016-08-26T02:48:02.197Z,18.13
2016-08-26T02:49:02.217Z,18.03
2016-08-26T02:50:02.212Z,18.18
2016-08-26T02:51:02.230Z,18.17
2016-08-26T02:52:02.310Z,18.15
2016-08-26T02:53:02.289Z,18.25
2016-08-26T02:54:02.208Z,18.12
2016-08-26T02:55:02.210Z,18.03
2016-08-26T02:56:02.234Z,18.21
2016-08-26T02:57:02.215Z,18.13
2016-08-26T02:58:02.187Z,18.24
2016-08-26T02:59:02.571Z,18.15
2016-08-26T03:00:02.212Z,18.1
2016-08-26T03:01:02.220Z,18.18
2016-08-26T03:02:02.199Z,18.07
2016-08-26T03:03:02.226Z,18.06
2016-08-26T03:04:02.228Z,18.13
2016-08-26T03:05:02.331Z,18.17
2016-08-26T03:06:02.232Z,18.04
2016-08-26T03:07:02.216Z,18.03
2016-08-26T03:08:02.278Z,18.09
2016-08-26T03:09:02.235Z,18.17
2016-08-26T03:10:02.247Z,18.04
2016-08-26T03:11:02.310Z,18.1
2016-08-26T03:12:02.202Z,18.03
2016-08-26T03:13:02.249Z,18.03
2016-08-26T03:14:02.229Z,18.02
2016-08-26T03:15:02.257Z,18.13
2016-08-26T03:16:02.259Z,18.1
2016-08-26T03:17:02.928Z,18.03
2016-08-26T03:18:02.303Z,18.09
2016-08-26T03:19:02.261Z,18.02
2016-08-26T03:20:02.262Z,18.1
2016-08-26T03:21:02.277Z,18.07
2016-08-26T03:22:02.260Z,18.1
2016-08-26T03:23:02.439Z,18.12
2016-08-26T03:24:02.245Z,17.97
2016-08-26T03:25:02.236Z,18.1
2016-08-26T03:26:02.296Z,18.03
2016-08-26T03:27:02.310Z,18.07
2016-08-26T03:28:02.277Z,18.04
2016-08-26T03:29:02.231Z,18.02
2016-08-26T03:30:02.322Z,17.99
2016-08-26T03:31:02.238Z,18
2016-08-26T03:32:02.234Z,18.03
2016-08-26T03:33:02.261Z,17.97
2016-08-26T03:34:02.244Z,17.89
2016-08-26T03:35:02.320Z,18.03
2016-08-26T03:36:02.290Z,18
2016-08-26T03:37:02.250Z,18.03
2016-08-26T03:38:02.291Z,18.04
2016-08-26T03:39:02.264Z,17.94
2016-08-26T03:40:02.314Z,18.06
2016-08-26T03:41:02.275Z,17.95
2016-08-26T03:42:02.230Z,17.97
2016-08-26T03:43:02.245Z,17.94
2016-08-26T03:44:02.411Z,18.06
2016-08-26T03:45:02.330Z,17.97
2016-08-26T03:46:02.278Z,17.95
2016-08-26T03:47:02.294Z,17.95
2016-08-26T03:48:02.276Z,17.91
2016-08-26T03:49:02.229Z,17.97
2016-08-26T03:50:02.326Z,18
2016-08-26T03:51:02.299Z,17.99
2016-08-26T03:52:02.268Z,17.88
2016-08-26T03:53:02.260Z,17.84
2016-08-26T03:54:02.265Z,17.97
2016-08-26T03:55:02.273Z,17.92
2016-08-26T03:56:02.411Z,17.89
2016-08-26T03:57:02.286Z,17.97
2016-08-26T03:58:02.262Z,17.79
2016-08-26T03:59:02.337Z,17.84
2016-08-26T04:00:02.448Z,17.87
2016-08-26T04:01:02.283Z,17.81
2016-08-26T04:02:02.263Z,17.85
2016-08-26T04:03:02.260Z,17.71
2016-08-26T04:04:02.375Z,17.78
2016-08-26T04:05:02.324Z,17.79
2016-08-26T04:06:02.297Z,17.7
2016-08-26T04:07:02.280Z,17.76
2016-08-26T04:08:02.299Z,17.67
2016-08-26T04:09:02.283Z,17.81
2016-08-26T04:10:02.276Z,17.74
2016-08-26T04:11:02.283Z,17.71
2016-08-26T04:12:02.298Z,17.79
2016-08-26T04:13:02.310Z,17.74
2016-08-26T04:14:02.306Z,17.7
2016-08-26T04:15:02.342Z,17.76
2016-08-26T04:16:02.294Z,17.76
2016-08-26T04:17:02.279Z,17.76
2016-08-26T04:18:02.314Z,17.78
2016-08-26T04:19:02.354Z,17.7
2016-08-26T04:20:02.322Z,17.66
2016-08-26T04:21:02.293Z,17.7
2016-08-26T04:22:02.384Z,17.79
2016-08-26T04:23:02.422Z,17.66
2016-08-26T04:24:02.295Z,17.76
2016-08-26T04:25:02.278Z,17.7
2016-08-26T04:26:02.416Z,17.73
2016-08-26T04:27:02.289Z,17.71
2016-08-26T04:28:02.297Z,17.71
2016-08-26T04:29:02.297Z,17.7
2016-08-26T04:30:02.295Z,17.66
2016-08-26T04:31:02.309Z,17.76
2016-08-26T04:32:02.296Z,17.66
2016-08-26T04:33:02.298Z,17.69
2016-08-26T04:34:02.353Z,17.76
2016-08-26T04:35:02.334Z,17.69
2016-08-26T04:36:02.279Z,17.66
2016-08-26T04:37:02.281Z,17.63
2016-08-26T04:38:02.368Z,17.67
2016-08-26T04:39:02.357Z,17.81
2016-08-26T04:40:02.391Z,17.67
2016-08-26T04:41:02.293Z,17.7
2016-08-26T04:42:02.329Z,17.74
2016-08-26T04:43:02.413Z,17.82
2016-08-26T04:44:02.374Z,17.71
2016-08-26T04:45:02.330Z,17.81
2016-08-26T04:46:02.329Z,17.81
2016-08-26T04:47:02.946Z,17.81
2016-08-26T04:48:02.324Z,17.73
2016-08-26T04:49:02.328Z,17.79
2016-08-26T04:50:02.312Z,17.85
2016-08-26T04:51:02.308Z,17.82
2016-08-26T04:52:02.309Z,17.91
2016-08-26T04:53:02.566Z,17.88
2016-08-26T04:54:02.309Z,17.92
2016-08-26T04:55:02.340Z,17.87
2016-08-26T04:56:02.310Z,17.89
2016-08-26T04:57:02.308Z,17.82
2016-08-26T04:58:02.428Z,17.84
2016-08-26T04:59:02.312Z,17.85
2016-08-26T05:00:02.321Z,17.87
2016-08-26T05:01:02.326Z,17.89
2016-08-26T05:02:02.566Z,17.91
2016-08-26T05:03:02.329Z,17.95
2016-08-26T05:04:02.483Z,17.89
2016-08-26T05:05:02.344Z,17.89
2016-08-26T05:06:02.341Z,17.99
2016-08-26T05:07:02.435Z,17.95
2016-08-26T05:08:02.379Z,17.97
2016-08-26T05:09:02.369Z,17.89
2016-08-26T05:10:02.362Z,17.91
2016-08-26T05:11:02.638Z,18.02
2016-08-26T05:12:02.331Z,18.06
2016-08-26T05:13:02.347Z,17.99
2016-08-26T05:14:02.329Z,17.95
2016-08-26T05:15:02.351Z,18.13
2016-08-26T05:16:02.325Z,18.15
2016-08-26T05:17:02.348Z,18.13
2016-08-26T05:18:02.326Z,18.21
2016-08-26T05:19:02.391Z,18.1
2016-08-26T05:20:02.541Z,18.19
2016-08-26T05:21:02.346Z,18.28
2016-08-26T05:22:02.351Z,18.19
2016-08-26T05:23:02.373Z,18.28
2016-08-26T05:24:02.341Z,18.28
2016-08-26T05:25:02.332Z,18.29
2016-08-26T05:26:02.408Z,18.43
2016-08-26T05:27:02.345Z,18.43
2016-08-26T05:28:02.358Z,18.42
2016-08-26T05:29:02.350Z,18.49
2016-08-26T05:30:02.342Z,18.47
2016-08-26T05:31:02.376Z,18.49
2016-08-26T05:32:02.358Z,18.49
2016-08-26T05:33:02.339Z,18.44
2016-08-26T05:34:02.345Z,18.65
2016-08-26T05:35:02.370Z,18.67
2016-08-26T05:36:02.372Z,18.74
2016-08-26T05:37:02.376Z,18.72
2016-08-26T05:38:02.345Z,18.82
2016-08-26T05:39:02.346Z,18.87
2016-08-26T05:40:02.357Z,18.94
2016-08-26T05:41:02.367Z,18.87
2016-08-26T05:42:02.362Z,19.01
2016-08-26T05:43:02.378Z,19.11
2016-08-26T05:44:02.387Z,19.14
2016-08-26T05:45:02.362Z,19.14
2016-08-26T05:46:02.368Z,19.24
2016-08-26T05:47:02.462Z,19.28
2016-08-26T05:48:02.374Z,19.36
2016-08-26T05:49:02.356Z,19.36
2016-08-26T05:50:02.361Z,19.42
2016-08-26T05:51:02.413Z,19.51
2016-08-26T05:52:02.347Z,19.5
2016-08-26T05:53:02.375Z,19.55
2016-08-26T05:54:02.372Z,19.57
2016-08-26T05:55:02.389Z,19.63
2016-08-26T05:56:02.374Z,19.66
2016-08-26T05:57:02.499Z,19.83
2016-08-26T05:58:02.363Z,19.79
2016-08-26T05:59:02.451Z,19.86
2016-08-26T06:00:02.373Z,19.91
2016-08-26T06:01:02.388Z,20.02
2016-08-26T06:02:02.385Z,20.02
2016-08-26T06:03:02.374Z,20.08
2016-08-26T06:04:02.394Z,20.18
2016-08-26T06:05:02.387Z,20.16
2016-08-26T06:06:02.407Z,20.21
2016-08-26T06:07:02.373Z,20.41
2016-08-26T06:08:02.378Z,20.33
2016-08-26T06:09:02.456Z,20.46
2016-08-26T06:10:02.420Z,20.49
2016-08-26T06:11:02.379Z,20.68
2016-08-26T06:12:02.387Z,20.65
2016-08-26T06:13:02.381Z,20.76
2016-08-26T06:14:02.384Z,20.71
2016-08-26T06:15:02.378Z,20.89
2016-08-26T06:16:02.387Z,20.89
2016-08-26T06:17:02.390Z,20.95
2016-08-26T06:18:02.397Z,20.99
2016-08-26T06:19:02.404Z,21.11
2016-08-26T06:20:02.375Z,21.2
2016-08-26T06:21:02.405Z,21.26
2016-08-26T06:22:02.391Z,21.34
2016-08-26T06:23:02.373Z,21.38
2016-08-26T06:24:02.386Z,21.44
2016-08-26T06:25:02.381Z,21.48
2016-08-26T06:26:02.399Z,21.56
2016-08-26T06:27:02.374Z,21.59
2016-08-26T06:28:02.402Z,21.71
2016-08-26T06:29:02.405Z,21.69
2016-08-26T06:30:02.390Z,21.85
2016-08-26T06:31:02.400Z,21.91
2016-08-26T06:32:02.404Z,21.97
2016-08-26T06:33:02.433Z,22.04
2016-08-26T06:34:02.419Z,22.07
2016-08-26T06:35:02.438Z,22.13
2016-08-26T06:36:02.401Z,22.27
2016-08-26T06:37:02.409Z,22.27
2016-08-26T06:38:02.404Z,22.34
2016-08-26T06:39:02.427Z,22.46
2016-08-26T06:40:02.390Z,22.44
2016-08-26T06:41:02.395Z,22.6
2016-08-26T06:42:02.434Z,22.6
2016-08-26T06:43:02.393Z,22.78
2016-08-26T06:44:02.411Z,22.8
2016-08-26T06:45:02.428Z,22.93
2016-08-26T06:46:02.452Z,23.05
2016-08-26T06:47:02.438Z,23.08
2016-08-26T06:48:02.421Z,23.02
2016-08-26T06:49:02.405Z,23.19
2016-08-26T06:50:02.407Z,23.31
2016-08-26T06:51:02.417Z,23.43
2016-08-26T06:52:02.413Z,23.52
2016-08-26T06:53:02.437Z,23.58
2016-08-26T06:54:02.441Z,23.61
2016-08-26T06:55:02.439Z,23.68
2016-08-26T06:56:02.422Z,23.83
2016-08-26T06:57:02.425Z,23.75
2016-08-26T06:58:02.436Z,23.83
2016-08-26T06:59:02.421Z,23.86
2016-08-26T07:00:02.435Z,23.94
2016-08-26T07:01:02.474Z,24.05
2016-08-26T07:02:02.432Z,23.89
2016-08-26T07:03:02.452Z,24.1
2016-08-26T07:04:02.421Z,23.98
2016-08-26T07:05:02.420Z,24.14
2016-08-26T07:06:02.434Z,24.19
2016-08-26T07:07:02.482Z,24.19
2016-08-26T07:08:02.426Z,24.26
2016-08-26T07:09:02.433Z,24.26
2016-08-26T07:10:02.440Z,24.31
2016-08-26T07:11:02.436Z,24.39
2016-08-26T07:12:02.425Z,24.38
2016-08-26T07:13:02.469Z,24.5
2016-08-26T07:14:02.542Z,24.45
2016-08-26T07:15:02.470Z,24.71
2016-08-26T07:16:02.498Z,24.63
2016-08-26T07:17:02.472Z,24.68
2016-08-26T07:18:02.468Z,24.73
2016-08-26T07:19:02.436Z,24.9
2016-08-26T07:20:02.467Z,24.98
2016-08-26T07:21:02.442Z,24.88
2016-08-26T07:22:02.445Z,24.92
2016-08-26T07:23:02.465Z,25.02
2016-08-26T07:24:02.456Z,25.19
2016-08-26T07:25:02.484Z,25.38
2016-08-26T07:26:02.484Z,25.39
2016-08-26T07:27:02.455Z,25.27
2016-08-26T07:28:02.458Z,25.49
2016-08-26T07:29:02.528Z,25.39
2016-08-26T07:30:02.454Z,25.53
2016-08-26T07:31:02.473Z,25.54
2016-08-26T07:32:02.476Z,25.59
2016-08-26T07:33:02.467Z,25.62
2016-08-26T07:34:02.468Z,25.74
2016-08-26T07:35:02.455Z,25.72
2016-08-26T07:36:02.446Z,25.77
2016-08-26T07:37:02.484Z,25.74
2016-08-26T07:38:02.533Z,26.04
2016-08-26T07:39:02.462Z,26.05
2016-08-26T07:40:02.474Z,25.99
2016-08-26T07:41:02.464Z,25.97
2016-08-26T07:42:02.489Z,26.05
2016-08-26T07:43:02.486Z,26.15
2016-08-26T07:44:02.505Z,26.31
2016-08-26T07:45:02.478Z,26.37
2016-08-26T07:46:02.481Z,26.46
2016-08-26T07:47:02.484Z,26.35
2016-08-26T07:48:02.485Z,26.46
2016-08-26T07:49:02.468Z,26.39
2016-08-26T07:50:02.503Z,26.58
2016-08-26T07:51:02.507Z,26.55
2016-08-26T07:52:02.468Z,26.58
2016-08-26T07:53:02.485Z,26.62
2016-08-26T07:54:02.503Z,26.58
2016-08-26T07:55:02.633Z,26.67
2016-08-26T07:56:02.517Z,26.68
2016-08-26T07:57:02.497Z,26.77
2016-08-26T07:58:02.499Z,26.91
2016-08-26T07:59:02.485Z,26.81
2016-08-26T08:00:02.499Z,26.99
2016-08-26T08:01:02.499Z,27.02
2016-08-26T08:02:02.546Z,26.98
2016-08-26T08:03:02.551Z,27.06
2016-08-26T08:04:02.506Z,27.23
2016-08-26T08:05:02.486Z,27.17
2016-08-26T08:06:02.504Z,27.17
2016-08-26T08:07:02.502Z,27.17
2016-08-26T08:08:02.498Z,27.26
2016-08-26T08:09:02.839Z,27.21
2016-08-26T08:10:02.552Z,27.17
2016-08-26T08:11:02.516Z,27.24
2016-08-26T08:12:02.491Z,27.13
2016-08-26T08:13:02.520Z,27.11
2016-08-26T08:14:03.794Z,27.11
2016-08-26T08:15:03.326Z,27.19
2016-08-26T08:16:02.514Z,27.21
2016-08-26T08:17:02.559Z,27.26
2016-08-26T08:18:02.557Z,27.36
2016-08-26T08:19:02.589Z,27.31
2016-08-26T08:20:02.570Z,27.42
2016-08-26T08:21:02.504Z,27.39
2016-08-26T08:22:02.525Z,27.39
2016-08-26T08:23:02.534Z,27.57
2016-08-26T08:24:03.223Z,27.48
2016-08-26T08:25:03.116Z,27.53
2016-08-26T08:26:02.553Z,27.47
2016-08-26T08:27:02.529Z,27.59
2016-08-26T08:28:02.510Z,27.64
2016-08-26T08:29:02.553Z,27.74
2016-08-26T08:30:02.768Z,27.8
2016-08-26T08:31:02.562Z,27.7
2016-08-26T08:32:02.534Z,27.91
2016-08-26T08:33:02.530Z,27.92
2016-08-26T08:34:02.561Z,27.89
2016-08-26T08:35:02.602Z,27.98
2016-08-26T08:36:02.516Z,28.01
2016-08-26T08:37:02.547Z,28.16
2016-08-26T08:38:02.543Z,28.06
2016-08-26T08:39:02.714Z,28.13
2016-08-26T08:40:02.691Z,28.11
2016-08-26T08:41:02.534Z,28.23
2016-08-26T08:42:02.559Z,28.23
2016-08-26T08:43:02.550Z,28.32
2016-08-26T08:44:03.025Z,28.25
2016-08-26T08:45:02.532Z,28.28
2016-08-26T08:46:02.538Z,28.26
2016-08-26T08:47:02.528Z,28.38
2016-08-26T08:48:02.582Z,28.47
2016-08-26T08:49:03.087Z,28.43
2016-08-26T08:50:02.551Z,28.44
2016-08-26T08:51:02.578Z,28.46
2016-08-26T08:52:02.549Z,28.54
2016-08-26T08:53:02.582Z,28.6
2016-08-26T08:54:03.173Z,28.59
2016-08-26T08:55:03.021Z,28.68
2016-08-26T08:56:02.561Z,28.69
2016-08-26T08:57:02.552Z,28.77
2016-08-26T08:58:02.589Z,28.96
2016-08-26T08:59:03.352Z,28.93
2016-08-26T09:00:02.583Z,28.97
2016-08-26T09:01:02.564Z,29.08
2016-08-26T09:02:02.563Z,29.1
2016-08-26T09:03:03.235Z,29.18
2016-08-26T09:04:02.547Z,29.16
2016-08-26T09:05:02.569Z,29.15
2016-08-26T09:06:02.562Z,29.16
2016-08-26T09:07:02.568Z,29.15
2016-08-26T09:08:02.561Z,29.2
2016-08-26T09:09:02.546Z,29.23
2016-08-26T09:10:02.564Z,29.26
2016-08-26T09:11:02.558Z,29.25
2016-08-26T09:12:02.566Z,29.31
2016-08-26T09:13:02.603Z,29.29
2016-08-26T09:14:03.030Z,29.38
2016-08-26T09:15:02.571Z,29.52
2016-08-26T09:16:02.585Z,29.41
2016-08-26T09:17:02.567Z,29.45
2016-08-26T09:18:02.567Z,29.55
2016-08-26T09:19:03.133Z,29.6
2016-08-26T09:20:02.579Z,29.6
2016-08-26T09:21:03.248Z,29.75
2016-08-26T09:22:02.944Z,29.77
2016-08-26T09:23:02.581Z,29.92
2016-08-26T09:24:03.226Z,29.87
2016-08-26T09:25:02.610Z,30.08
2016-08-26T09:26:02.638Z,30.07
2016-08-26T09:27:02.592Z,30.19
2016-08-26T09:28:02.593Z,30.24
2016-08-26T09:29:02.650Z,30.34
2016-08-26T09:30:03.199Z,30.31
2016-08-26T09:31:03.185Z,30.37
2016-08-26T09:32:03.057Z,30.52
2016-08-26T09:33:02.624Z,30.54
2016-08-26T09:34:03.335Z,30.62
2016-08-26T09:35:02.610Z,30.87
2016-08-26T09:36:03.302Z,30.81
2016-08-26T09:37:02.881Z,30.8
2016-08-26T09:38:02.595Z,30.87
2016-08-26T09:39:02.620Z,31.04
2016-08-26T09:40:02.593Z,31.01
2016-08-26T09:41:02.584Z,31.12
2016-08-26T09:42:02.866Z,30.98
2016-08-26T09:43:02.626Z,30.96
2016-08-26T09:44:03.497Z,30.89
2016-08-26T09:45:02.746Z,30.99
2016-08-26T09:46:03.283Z,31.09
2016-08-26T09:47:02.641Z,31.09
2016-08-26T09:48:02.608Z,31.15
2016-08-26T09:49:02.648Z,31.09
2016-08-26T09:50:03.181Z,31.08
2016-08-26T09:51:03.485Z,31.12
2016-08-26T09:52:03.301Z,31.11
2016-08-26T09:53:02.788Z,31.2
2016-08-26T09:54:03.223Z,31.21
2016-08-26T09:55:03.502Z,31.24
2016-08-26T09:56:02.735Z,31.21
2016-08-26T09:57:02.610Z,31.2
2016-08-26T09:58:02.734Z,31.08
2016-08-26T09:59:02.628Z,31.18
2016-08-26T10:00:02.640Z,31.12
2016-08-26T10:01:02.642Z,31.26
2016-08-26T10:02:02.630Z,31.11
2016-08-26T10:03:02.644Z,31.18
2016-08-26T10:04:02.660Z,31.15
2016-08-26T10:05:02.649Z,31.17
2016-08-26T10:06:02.625Z,31.11
2016-08-26T10:07:02.656Z,31.12
2016-08-26T10:08:02.647Z,31.08
2016-08-26T10:09:02.681Z,31.18
2016-08-26T10:10:02.645Z,31.15
2016-08-26T10:11:02.811Z,31.18
2016-08-26T10:12:02.844Z,31.08
2016-08-26T10:13:02.672Z,31.21
2016-08-26T10:14:02.626Z,31.11
2016-08-26T10:15:02.793Z,31.18
2016-08-26T10:16:02.785Z,31.11
2016-08-26T10:17:02.664Z,31.15
2016-08-26T10:18:05.009Z,31.12
2016-08-26T10:19:03.407Z,31.13
2016-08-26T10:20:30.522Z,30.99
2016-08-26T10:29:46.558Z,31.2
2016-08-26T10:30:46.605Z,31.11
2016-08-26T10:31:46.602Z,31.18
2016-08-26T10:32:46.565Z,31.05
2016-08-26T10:33:46.714Z,30.99
2016-08-26T10:34:46.690Z,31.01
2016-08-26T10:35:46.733Z,30.91
2016-08-26T10:36:46.658Z,31.05
2016-08-26T10:37:46.538Z,31.01
2016-08-26T10:38:46.549Z,31.09
2016-08-26T10:39:46.582Z,31.01
2016-08-26T10:40:46.557Z,31.12
2016-08-26T10:41:46.624Z,31.08
2016-08-26T10:42:46.565Z,31.04
2016-08-26T10:43:46.535Z,30.99
2016-08-26T10:44:46.586Z,31.11
2016-08-26T10:45:46.633Z,31.09
2016-08-26T10:46:46.555Z,31.04
2016-08-26T10:47:46.592Z,31.12
2016-08-26T10:48:46.607Z,31.15
2016-08-26T10:49:46.558Z,31.05
2016-08-26T10:50:46.560Z,31.21
2016-08-26T10:51:46.589Z,31.2
2016-08-26T10:52:46.565Z,31.13
2016-08-26T10:53:46.639Z,31.21
2016-08-26T10:54:46.595Z,31.11
2016-08-26T10:55:46.564Z,31.17
2016-08-26T10:56:46.624Z,31.12
2016-08-26T10:57:46.565Z,31.2
2016-08-26T10:59:00.744Z,31.17
2016-08-26T11:00:08.900Z,31.21
2016-08-26T11:01:14.972Z,31.17
2016-08-26T11:02:29.116Z,31.12
2016-08-26T11:02:56.292Z,31.11
2016-08-26T11:04:09.566Z,31.2
2016-08-26T11:05:33.858Z,31.23
2016-08-26T11:06:56.671Z,31.2
2016-08-26T11:08:20.318Z,31.18
2016-08-26T11:09:42.602Z,31.13
2016-08-26T11:11:04.616Z,31.15
2016-08-26T11:12:26.948Z,31.15
2016-08-26T11:13:50.036Z,31.17
2016-08-26T11:15:13.092Z,31.17
2016-08-26T11:16:35.038Z,31.09
2016-08-26T11:17:56.625Z,31.21
2016-08-26T11:19:15.817Z,31.09
2016-08-26T11:19:42.553Z,31.21
2016-08-26T11:21:14.957Z,31.11
2016-08-26T11:22:31.112Z,31.06
2016-08-26T11:23:46.230Z,31.15
2016-08-26T11:24:43.895Z,31.15
2016-08-26T11:25:28.679Z,31.15
2016-08-26T11:26:28.627Z,31.2
2016-08-26T11:27:28.632Z,31.2
2016-08-26T11:28:28.618Z,31.18
2016-08-26T11:29:28.599Z,31.17
2016-08-26T11:30:28.632Z,31.23
2016-08-26T11:31:28.617Z,31.23
2016-08-26T11:32:28.625Z,31.18
2016-08-26T11:33:28.626Z,31.28
2016-08-26T11:34:28.617Z,31.3
2016-08-26T11:35:28.634Z,31.3
2016-08-26T11:36:28.625Z,31.35
2016-08-26T11:37:28.625Z,31.24
2016-08-26T11:38:28.661Z,31.35
2016-08-26T11:39:28.661Z,31.26
2016-08-26T11:40:28.638Z,31.31
2016-08-26T11:41:28.632Z,31.38
2016-08-26T11:42:28.653Z,31.3
2016-08-26T11:43:28.646Z,31.31
2016-08-26T11:44:28.653Z,31.45
2016-08-26T11:45:28.690Z,31.38
2016-08-26T11:46:28.652Z,31.31
2016-08-26T11:47:28.664Z,31.43
2016-08-26T11:48:28.678Z,31.42
2016-08-26T11:49:28.649Z,31.4
2016-08-26T11:50:28.691Z,31.45
2016-08-26T11:51:28.647Z,31.46
2016-08-26T11:52:28.643Z,31.46
2016-08-26T11:53:28.669Z,31.45
2016-08-26T11:54:28.652Z,31.54
2016-08-26T11:55:28.651Z,31.5
2016-08-26T11:56:28.658Z,31.49
2016-08-26T11:57:28.663Z,31.58
2016-08-26T11:58:28.670Z,31.53
2016-08-26T11:59:28.662Z,31.62
2016-08-26T12:00:28.647Z,31.55
2016-08-26T12:01:28.651Z,31.49
2016-08-26T12:02:28.741Z,31.54
2016-08-26T12:03:28.678Z,31.61
2016-08-26T12:04:28.675Z,31.55
2016-08-26T12:05:28.685Z,31.64
2016-08-26T12:06:28.666Z,31.62
2016-08-26T12:07:28.660Z,31.62
2016-08-26T12:08:28.679Z,31.62
2016-08-26T12:09:28.687Z,31.67
2016-08-26T12:10:28.671Z,31.58
2016-08-26T12:11:28.659Z,31.68
2016-08-26T12:12:28.671Z,31.72
2016-08-26T12:13:28.673Z,31.7
2016-08-26T12:14:28.676Z,31.79
2016-08-26T12:15:28.684Z,31.76
2016-08-26T12:16:28.686Z,31.75
2016-08-26T12:17:28.700Z,31.8
2016-08-26T12:18:28.694Z,31.79
2016-08-26T12:19:28.692Z,31.8
2016-08-26T12:20:28.687Z,31.72
2016-08-26T12:21:28.687Z,31.82
2016-08-26T12:22:28.701Z,31.76
2016-08-26T12:23:28.691Z,31.79
2016-08-26T12:24:28.695Z,31.84
2016-08-26T12:25:28.708Z,31.82
2016-08-26T12:26:28.694Z,31.91
2016-08-26T12:27:28.701Z,31.92
2016-08-26T12:28:28.678Z,31.95
2016-08-26T12:29:28.694Z,31.96
2016-08-26T12:30:28.691Z,32.07
2016-08-26T12:31:28.687Z,31.98
2016-08-26T12:32:28.674Z,32.03
2016-08-26T12:33:28.708Z,32.02
2016-08-26T12:34:28.794Z,32.06
2016-08-26T12:35:28.710Z,32.03
2016-08-26T12:36:28.690Z,31.92
2016-08-26T12:37:28.698Z,31.95
2016-08-26T12:38:28.719Z,32.06
2016-08-26T12:39:28.676Z,32.05
2016-08-26T12:40:28.712Z,31.99
2016-08-26T12:41:28.704Z,32.06
2016-08-26T12:42:28.751Z,32
2016-08-26T12:43:28.725Z,32
2016-08-26T12:44:28.722Z,32.13
2016-08-26T12:45:28.707Z,32.15
2016-08-26T12:46:28.737Z,32.2
2016-08-26T12:47:28.722Z,32.14
2016-08-26T12:48:28.765Z,32.2
2016-08-26T12:49:28.742Z,32.15
2016-08-26T12:50:28.741Z,32.07
2016-08-26T12:51:28.714Z,32.07
2016-08-26T12:52:28.735Z,32.1
2016-08-26T12:53:28.734Z,32.06
2016-08-26T12:54:33.165Z,32.17
2016-08-26T12:55:29.389Z,32.15
2016-08-26T12:56:28.736Z,32.15
2016-08-26T12:57:28.721Z,32.17
2016-08-26T12:58:28.736Z,32.11
2016-08-26T12:59:28.752Z,32.13
2016-08-26T13:00:28.729Z,32.11
2016-08-26T13:01:29.577Z,32.11
2016-08-26T13:02:28.831Z,32.1
2016-08-26T13:03:28.835Z,32.06
2016-08-26T13:04:28.836Z,32.06
2016-08-26T13:05:28.809Z,32.21
2016-08-26T13:06:28.800Z,32.18
2016-08-26T13:07:29.367Z,32.17
2016-08-26T13:08:29.010Z,32.24